createdAt,value
2022-08-22T00:00:44.682Z,18.50
2022-08-22T00:02:42.143Z,19.50
2022-08-22T00:03:22.798Z,18.40
2022-08-22T00:06:03.731Z,18.40
2022-08-22T00:08:40.218Z,18.40
2022-08-22T00:11:16.773Z,18.40
2022-08-22T00:14:01.548Z,18.50
2022-08-22T00:16:36.310Z,18.40
2022-08-22T00:19:12.265Z,18.40
2022-08-22T00:21:47.718Z,18.50
2022-08-22T00:24:26.303Z,18.40
2022-08-22T00:26:57.776Z,18.40
2022-08-22T00:29:34.619Z,18.40
2022-08-22T00:32:16.959Z,18.30
2022-08-22T00:34:51.866Z,18.30
2022-08-22T00:37:27.270Z,18.30
2022-08-22T00:40:03.884Z,18.30
2022-08-22T00:43:03.016Z,18.20
2022-08-22T00:46:13.872Z,18.30
2022-08-22T00:49:33.186Z,18.30
2022-08-22T00:52:43.383Z,18.30
2022-08-22T00:55:23.518Z,18.30
2022-08-22T00:58:13.491Z,18.30
2022-08-22T01:00:45.873Z,18.30
2022-08-22T01:03:49.367Z,18.40
2022-08-22T01:06:26.102Z,18.40
2022-08-22T01:09:03.852Z,18.40
2022-08-22T01:11:51.996Z,18.40
2022-08-22T01:14:35.087Z,18.40
2022-08-22T01:17:37.962Z,18.40
2022-08-22T01:20:58.608Z,18.40
2022-08-22T01:24:07.108Z,18.40
2022-08-22T01:27:20.282Z,18.40
2022-08-22T01:30:08.737Z,18.40
2022-08-22T01:33:30.220Z,18.40
2022-08-22T01:36:14.133Z,18.40
2022-08-22T01:39:04.185Z,18.40
2022-08-22T01:42:00.341Z,18.40
2022-08-22T01:44:55.776Z,18.40
2022-08-22T01:47:31.132Z,18.40
2022-08-22T01:50:18.552Z,18.40
2022-08-22T01:52:51.958Z,18.40
2022-08-22T01:55:33.043Z,18.50
2022-08-22T01:58:14.488Z,18.50
2022-08-22T02:01:06.253Z,18.50
2022-08-22T02:03:40.052Z,18.50
2022-08-22T02:06:14.522Z,18.50
2022-08-22T02:08:52.534Z,18.50
2022-08-22T02:11:40.904Z,18.50
2022-08-22T02:14:20.138Z,18.50
2022-08-22T02:16:54.322Z,18.50
2022-08-22T02:19:34.684Z,18.50
2022-08-22T02:22:07.906Z,18.50
2022-08-22T02:24:47.484Z,18.50
2022-08-22T02:27:28.622Z,18.50
2022-08-22T02:30:06.162Z,18.50
2022-08-22T02:32:55.498Z,18.50
2022-08-22T02:35:31.176Z,18.50
2022-08-22T02:38:13.363Z,18.50
2022-08-22T02:40:49.680Z,18.50
2022-08-22T02:43:21.623Z,18.50
2022-08-22T02:45:55.691Z,18.50
2022-08-22T02:48:35.699Z,18.50
2022-08-22T02:51:11.973Z,18.50
2022-08-22T02:53:51.047Z,18.50
2022-08-22T02:56:25.901Z,18.60
2022-08-22T02:58:59.935Z,18.60
2022-08-22T03:01:40.923Z,18.60
2022-08-22T03:04:47.911Z,18.60
2022-08-22T03:07:28.661Z,18.60
2022-08-22T03:10:10.371Z,18.60
2022-08-22T03:12:48.620Z,18.60
2022-08-22T03:15:24.321Z,18.60
2022-08-22T03:17:57.322Z,18.50
2022-08-22T03:20:44.158Z,18.60
2022-08-22T03:23:21.575Z,18.60
2022-08-22T03:25:56.942Z,18.60
2022-08-22T03:28:32.595Z,18.60
2022-08-22T03:31:10.136Z,18.60
2022-08-22T03:33:39.863Z,18.60
2022-08-22T03:36:13.779Z,18.60
2022-08-22T03:38:55.479Z,18.60
2022-08-22T03:42:01.225Z,18.60
2022-08-22T03:44:59.015Z,18.60
2022-08-22T03:47:47.409Z,18.60
2022-08-22T03:50:39.098Z,18.60
2022-08-22T03:53:32.848Z,18.60
2022-08-22T03:56:37.851Z,18.70
2022-08-22T03:59:44.679Z,18.70
2022-08-22T04:02:42.781Z,18.70
2022-08-22T04:05:46.073Z,18.70
2022-08-22T04:08:52.441Z,18.70
2022-08-22T04:11:41.467Z,18.70
2022-08-22T04:14:25.215Z,18.70
2022-08-22T04:17:35.905Z,18.70
2022-08-22T04:20:30.419Z,18.70
2022-08-22T04:23:24.356Z,18.70
2022-08-22T04:25:58.072Z,18.70
2022-08-22T04:28:35.503Z,18.70
2022-08-22T04:31:10.244Z,18.70
2022-08-22T04:33:46.311Z,18.70
2022-08-22T04:36:21.396Z,18.70
2022-08-22T04:38:53.930Z,18.60
2022-08-22T04:41:27.075Z,18.60
2022-08-22T04:43:59.139Z,18.60
2022-08-22T04:46:37.065Z,18.60
2022-08-22T04:49:13.602Z,18.60
2022-08-22T04:51:48.613Z,18.60
2022-08-22T04:54:34.426Z,18.60
2022-08-22T04:57:17.759Z,18.60
2022-08-22T04:59:46.952Z,18.60
2022-08-22T05:02:24.346Z,18.60
2022-08-22T05:05:01.727Z,18.60
2022-08-22T05:07:36.553Z,18.60
2022-08-22T05:10:11.974Z,18.60
2022-08-22T05:12:44.802Z,18.60
2022-08-22T05:15:23.055Z,18.60
2022-08-22T05:17:54.770Z,18.60
2022-08-22T05:20:27.393Z,18.60
2022-08-22T05:23:00.769Z,18.60
2022-08-22T05:25:33.241Z,18.60
2022-08-22T05:28:12.237Z,18.60
2022-08-22T05:30:41.508Z,18.70
2022-08-22T05:33:17.752Z,18.60
2022-08-22T05:35:55.792Z,18.60
2022-08-22T05:38:31.627Z,18.70
2022-08-22T05:41:05.251Z,18.70
2022-08-22T05:43:38.055Z,18.70
2022-08-22T05:46:10.002Z,18.70
2022-08-22T05:48:43.937Z,18.70
2022-08-22T05:51:18.936Z,18.70
2022-08-22T05:53:53.673Z,18.80
2022-08-22T05:56:30.259Z,18.90
2022-08-22T05:59:08.514Z,18.80
2022-08-22T06:01:44.710Z,18.90
2022-08-22T06:04:18.675Z,18.90
2022-08-22T06:06:53.860Z,19.00
2022-08-22T06:09:35.602Z,19.00
2022-08-22T06:12:21.951Z,19.10
2022-08-22T06:14:59.162Z,19.10
2022-08-22T06:17:32.236Z,19.20
2022-08-22T06:20:01.743Z,19.20
2022-08-22T06:22:35.964Z,19.30
2022-08-22T06:25:10.341Z,19.30
2022-08-22T06:27:39.429Z,19.30
2022-08-22T06:30:09.250Z,19.30
2022-08-22T06:32:58.867Z,19.40
2022-08-22T06:35:53.911Z,19.40
2022-08-22T06:38:29.631Z,19.40
2022-08-22T06:41:00.615Z,19.40
2022-08-22T06:43:39.235Z,19.40
2022-08-22T06:46:08.109Z,19.40
2022-08-22T06:48:38.002Z,19.50
2022-08-22T06:51:09.520Z,19.50
2022-08-22T06:53:48.069Z,19.50
2022-08-22T06:56:23.069Z,19.50
2022-08-22T06:58:54.045Z,19.60
2022-08-22T07:01:26.427Z,19.60
2022-08-22T07:03:59.577Z,19.60
2022-08-22T07:06:33.341Z,19.60
2022-08-22T07:09:05.663Z,19.60
2022-08-22T07:11:40.729Z,19.70
2022-08-22T07:14:12.707Z,19.60
2022-08-22T07:16:45.801Z,19.70
2022-08-22T07:19:26.586Z,19.80
2022-08-22T07:21:55.314Z,19.80
2022-08-22T07:24:28.978Z,19.90
2022-08-22T07:27:09.026Z,19.90
2022-08-22T07:29:47.909Z,20.00
2022-08-22T07:32:20.574Z,20.00
2022-08-22T07:35:02.764Z,20.00
2022-08-22T07:37:51.618Z,20.00
2022-08-22T07:40:27.221Z,20.10
2022-08-22T07:43:01.866Z,20.10
2022-08-22T07:45:37.129Z,20.10
2022-08-22T07:48:25.486Z,20.10
2022-08-22T07:51:10.211Z,20.10
2022-08-22T07:53:43.517Z,20.10
2022-08-22T07:56:17.014Z,20.10
2022-08-22T07:58:49.217Z,20.10
2022-08-22T08:01:21.663Z,20.10
2022-08-22T08:03:54.535Z,20.10
2022-08-22T08:06:24.421Z,20.10
2022-08-22T08:08:54.120Z,20.10
2022-08-22T08:11:27.714Z,20.20
2022-08-22T08:14:00.486Z,20.20
2022-08-22T08:16:43.425Z,20.20
2022-08-22T08:19:13.635Z,20.20
2022-08-22T08:21:49.563Z,20.30
2022-08-22T08:24:24.939Z,20.30
2022-08-22T08:27:17.076Z,20.30
2022-08-22T08:29:54.595Z,20.30
2022-08-22T08:32:24.788Z,20.30
2022-08-22T08:34:53.645Z,20.40
2022-08-22T08:37:27.598Z,20.40
2022-08-22T08:40:00.003Z,20.40
2022-08-22T08:43:05.018Z,20.40
2022-08-22T08:45:56.370Z,20.40
2022-08-22T08:48:57.999Z,20.40
2022-08-22T08:52:03.764Z,20.50
2022-08-22T08:55:02.449Z,20.50
2022-08-22T08:58:07.076Z,20.60
2022-08-22T09:01:00.251Z,20.60
2022-08-22T09:07:39.270Z,20.90
2022-08-22T09:10:21.033Z,20.90
2022-08-22T09:16:17.649Z,21.00
2022-08-22T09:19:08.334Z,21.00
2022-08-22T09:22:05.605Z,21.00
2022-08-22T09:25:16.038Z,21.10
2022-08-22T09:27:55.509Z,21.10
2022-08-22T09:30:28.613Z,21.20
2022-08-22T09:33:02.083Z,21.20
2022-08-22T09:35:39.826Z,21.30
2022-08-22T09:38:30.598Z,21.30
2022-08-22T09:40:15.454Z,21.00
2022-08-22T09:40:16.412Z,20.70
2022-08-22T09:41:10.527Z,21.30
2022-08-22T09:43:45.152Z,21.30
2022-08-22T09:46:29.559Z,21.40
2022-08-22T09:49:06.570Z,21.30
2022-08-22T09:51:43.235Z,21.20
2022-08-22T09:54:23.014Z,21.20
2022-08-22T09:57:03.545Z,21.10
2022-08-22T09:59:49.156Z,21.20
2022-08-22T10:02:34.633Z,21.20
2022-08-22T10:05:13.355Z,21.20
2022-08-22T10:08:26.222Z,21.30
2022-08-22T10:11:27.219Z,21.40
2022-08-22T10:14:04.126Z,21.50
2022-08-22T10:16:50.397Z,21.50
2022-08-22T10:19:26.193Z,21.60
2022-08-22T10:22:37.020Z,21.60
2022-08-22T10:25:23.990Z,21.50
2022-08-22T10:28:00.887Z,21.40
2022-08-22T10:30:34.688Z,21.40
2022-08-22T10:33:13.012Z,21.30
2022-08-22T10:35:57.943Z,21.40
2022-08-22T10:38:31.862Z,21.40
2022-08-22T10:41:09.419Z,21.50
2022-08-22T10:43:47.543Z,21.60
2022-08-22T10:46:36.015Z,21.70
2022-08-22T10:49:09.708Z,21.70
2022-08-22T10:51:46.926Z,21.70
2022-08-22T10:54:38.958Z,21.70
2022-08-22T10:57:32.648Z,21.80
2022-08-22T11:00:11.622Z,21.90
2022-08-22T11:02:49.585Z,22.00
2022-08-22T11:05:33.539Z,22.00
2022-08-22T11:08:15.722Z,21.90
2022-08-22T11:11:01.661Z,21.90
2022-08-22T11:13:42.342Z,21.80
2022-08-22T11:16:26.213Z,21.80
2022-08-22T11:19:18.136Z,21.70
2022-08-22T11:22:01.593Z,21.70
2022-08-22T11:25:11.355Z,21.70
2022-08-22T11:27:47.819Z,21.70
2022-08-22T11:30:22.286Z,21.80
2022-08-22T11:33:33.884Z,22.00
2022-08-22T11:36:27.789Z,22.00
2022-08-22T11:39:19.045Z,22.10
2022-08-22T11:41:55.655Z,22.20
2022-08-22T11:44:31.276Z,22.30
2022-08-22T11:47:02.889Z,22.40
2022-08-22T11:49:42.713Z,22.40
2022-08-22T11:52:27.783Z,22.30
2022-08-22T11:55:11.712Z,22.20
2022-08-22T11:57:44.449Z,22.00
2022-08-22T12:00:24.642Z,21.90
2022-08-22T12:03:29.501Z,21.90
2022-08-22T12:06:06.326Z,22.00
2022-08-22T12:09:09.664Z,22.10
2022-08-22T12:11:45.974Z,22.10
2022-08-22T12:14:21.384Z,22.20
2022-08-22T12:17:10.631Z,22.30
2022-08-22T12:20:15.377Z,22.50
2022-08-22T12:23:01.060Z,22.60
2022-08-22T12:25:51.093Z,22.80
2022-08-22T12:28:33.090Z,22.90
2022-08-22T12:31:13.076Z,23.10
2022-08-22T12:34:04.424Z,23.10
2022-08-22T12:37:06.804Z,23.10
2022-08-22T12:39:55.303Z,23.20
2022-08-22T12:42:38.799Z,23.30
2022-08-22T12:45:33.924Z,23.40
2022-08-22T12:48:17.582Z,23.50
2022-08-22T12:50:53.399Z,23.60
2022-08-22T12:53:49.985Z,23.60
2022-08-22T12:56:32.881Z,23.60
2022-08-22T12:59:19.676Z,23.60
2022-08-22T13:01:51.585Z,23.50
2022-08-22T13:04:33.311Z,23.50
2022-08-22T13:07:23.604Z,23.50
2022-08-22T13:09:55.122Z,23.40
2022-08-22T13:12:29.631Z,23.50
2022-08-22T13:15:02.469Z,23.50
2022-08-22T13:17:33.590Z,23.60
2022-08-22T13:20:10.361Z,23.80
2022-08-22T13:22:45.377Z,24.00
2022-08-22T13:25:26.695Z,24.10
2022-08-22T13:27:59.152Z,24.30
2022-08-22T13:30:32.733Z,24.40
2022-08-22T13:33:09.606Z,24.50
2022-08-22T13:35:45.436Z,24.60
2022-08-22T13:38:25.708Z,24.60
2022-08-22T13:40:57.299Z,24.60
2022-08-22T13:43:31.173Z,24.60
2022-08-22T13:46:02.467Z,24.60
2022-08-22T13:48:47.638Z,24.60
2022-08-22T13:51:25.902Z,24.70
2022-08-22T13:54:02.809Z,25.00
2022-08-22T13:56:47.560Z,25.00
2022-08-22T13:59:49.111Z,25.10
2022-08-22T14:02:43.260Z,25.00
2022-08-22T14:05:20.688Z,25.10
2022-08-22T14:07:58.289Z,25.10
2022-08-22T14:10:32.523Z,25.10
2022-08-22T14:13:32.905Z,25.20
2022-08-22T14:16:10.435Z,25.10
2022-08-22T14:18:46.050Z,25.20
2022-08-22T14:21:40.523Z,25.20
2022-08-22T14:24:18.946Z,25.20
2022-08-22T14:27:05.609Z,25.30
2022-08-22T14:29:42.998Z,25.30
2022-08-22T14:32:35.051Z,25.40
2022-08-22T14:35:10.761Z,25.60
2022-08-22T14:37:54.399Z,25.80
2022-08-22T14:40:28.966Z,25.90
2022-08-22T14:43:05.490Z,26.00
2022-08-22T14:45:38.119Z,25.90
2022-08-22T14:48:31.343Z,25.90
2022-08-22T14:51:03.841Z,25.80
2022-08-22T14:53:37.120Z,26.00
2022-08-22T14:56:11.461Z,26.10
2022-08-22T14:58:50.436Z,26.10
2022-08-22T15:01:21.952Z,26.20
2022-08-22T15:03:59.399Z,26.20
2022-08-22T15:06:36.501Z,26.10
2022-08-22T15:09:12.682Z,26.10
2022-08-22T15:11:49.486Z,26.00
2022-08-22T15:14:25.925Z,26.00
2022-08-22T15:16:57.177Z,26.00
2022-08-22T15:19:29.721Z,26.00
2022-08-22T15:22:13.702Z,26.10
2022-08-22T15:24:46.184Z,26.00
2022-08-22T15:27:19.353Z,26.10
2022-08-22T15:29:52.386Z,26.20
2022-08-22T15:32:26.672Z,26.20
2022-08-22T15:35:06.198Z,26.20
2022-08-22T15:37:36.523Z,26.10
2022-08-22T15:40:13.412Z,26.10
2022-08-22T15:42:45.333Z,26.10
2022-08-22T15:45:23.330Z,26.10
2022-08-22T15:47:54.482Z,26.10
2022-08-22T15:50:36.632Z,26.00
2022-08-22T15:53:18.465Z,25.90
2022-08-22T15:56:25.859Z,25.80
2022-08-22T15:59:26.250Z,25.70
2022-08-22T16:01:58.392Z,25.60
2022-08-22T16:04:37.511Z,25.60
2022-08-22T16:07:22.851Z,25.60
2022-08-22T16:09:53.379Z,25.60
2022-08-22T16:12:36.506Z,25.50
2022-08-22T16:15:09.129Z,25.40
2022-08-22T16:17:53.339Z,25.50
2022-08-22T16:20:47.786Z,25.40
2022-08-22T16:23:16.082Z,25.50
2022-08-22T16:26:12.917Z,25.40
2022-08-22T16:28:58.360Z,25.40
2022-08-22T16:31:32.975Z,25.40
2022-08-22T16:34:22.107Z,25.40
2022-08-22T16:36:52.305Z,25.40
2022-08-22T16:39:39.660Z,25.50
2022-08-22T16:42:27.756Z,25.50
2022-08-22T16:45:09.374Z,25.60
2022-08-22T16:47:52.885Z,25.60
2022-08-22T16:50:38.071Z,25.60
2022-08-22T16:53:10.692Z,25.50
2022-08-22T16:55:51.194Z,25.50
2022-08-22T16:58:56.989Z,25.50
2022-08-22T17:01:52.300Z,25.40
2022-08-22T17:04:32.784Z,25.30
2022-08-22T17:07:16.387Z,25.30
2022-08-22T17:10:12.717Z,25.20
2022-08-22T17:12:54.462Z,25.10
2022-08-22T17:15:32.155Z,25.00
2022-08-22T17:18:15.286Z,25.00
2022-08-22T17:20:50.711Z,24.90
2022-08-22T17:23:42.152Z,24.80
2022-08-22T17:26:21.217Z,24.80
2022-08-22T17:29:02.477Z,24.70
2022-08-22T17:31:37.319Z,24.70
2022-08-22T17:34:28.982Z,24.70
2022-08-22T17:37:10.421Z,24.70
2022-08-22T17:39:55.541Z,24.70
2022-08-22T17:42:56.273Z,24.60
2022-08-22T17:45:34.504Z,24.60
2022-08-22T17:48:09.470Z,24.60
2022-08-22T17:50:46.293Z,24.60
2022-08-22T17:53:31.514Z,24.60
2022-08-22T17:56:06.913Z,24.60
2022-08-22T17:58:43.732Z,24.50
2022-08-22T18:01:16.227Z,24.50
2022-08-22T18:03:59.480Z,24.50
2022-08-22T18:06:34.672Z,24.50
2022-08-22T18:09:14.022Z,24.50
2022-08-22T18:11:47.536Z,24.40
2022-08-22T18:14:32.728Z,24.40
2022-08-22T18:17:01.986Z,24.40
2022-08-22T18:19:46.415Z,24.40
2022-08-22T18:22:25.795Z,24.40
2022-08-22T18:25:01.315Z,24.30
2022-08-22T18:27:35.823Z,24.30
2022-08-22T18:30:15.276Z,24.30
2022-08-22T18:32:52.592Z,24.30
2022-08-22T18:35:26.337Z,24.30
2022-08-22T18:38:18.311Z,24.20
2022-08-22T18:40:54.889Z,24.20
2022-08-22T18:43:30.924Z,24.20
2022-08-22T18:46:05.866Z,24.20
2022-08-22T18:49:05.453Z,24.20
2022-08-22T18:51:38.226Z,24.20
2022-08-22T18:54:32.029Z,24.20
2022-08-22T18:57:11.055Z,24.10
2022-08-22T19:00:03.521Z,24.10
2022-08-22T19:02:57.721Z,24.10
2022-08-22T19:05:43.541Z,24.00
2022-08-22T19:08:57.432Z,24.00
2022-08-22T19:11:43.759Z,24.00
2022-08-22T19:14:48.271Z,24.00
2022-08-22T19:17:59.328Z,23.90
2022-08-22T19:20:48.373Z,23.90
2022-08-22T19:23:47.553Z,23.90
2022-08-22T19:26:29.093Z,23.80
2022-08-22T19:29:01.925Z,23.80
2022-08-22T19:31:52.740Z,23.80
2022-08-22T19:34:38.031Z,23.80
2022-08-22T19:37:33.592Z,23.80
2022-08-22T19:40:05.757Z,23.70
2022-08-22T19:42:38.323Z,23.70
2022-08-22T19:45:21.315Z,23.70
2022-08-22T19:48:02.446Z,23.70
2022-08-22T19:50:35.371Z,23.70
2022-08-22T19:53:35.301Z,23.60
2022-08-22T19:56:14.308Z,23.60
2022-08-22T19:59:03.685Z,23.60
2022-08-22T20:01:44.162Z,23.60
2022-08-22T20:04:37.980Z,23.60
2022-08-22T20:07:16.480Z,23.60
2022-08-22T20:09:54.772Z,23.60
2022-08-22T20:12:31.732Z,23.60
2022-08-22T20:15:16.508Z,23.60
2022-08-22T20:18:11.603Z,23.60
2022-08-22T20:20:40.126Z,23.60
2022-08-22T20:23:14.154Z,23.60
2022-08-22T20:25:49.406Z,23.50
2022-08-22T20:28:36.671Z,23.50
2022-08-22T20:31:10.680Z,23.50
2022-08-22T20:33:46.030Z,23.50
2022-08-22T20:36:28.480Z,23.50
2022-08-22T20:39:01.937Z,23.50
2022-08-22T20:41:38.894Z,23.50
2022-08-22T20:44:13.860Z,23.50
2022-08-22T20:46:53.831Z,23.50
2022-08-22T20:49:27.015Z,23.40
2022-08-22T20:51:59.451Z,23.40
2022-08-22T20:54:31.224Z,23.40
2022-08-22T20:57:01.978Z,23.40
2022-08-22T20:59:36.053Z,23.40
2022-08-22T21:02:16.098Z,23.40
2022-08-22T21:04:53.493Z,23.30
2022-08-22T21:07:26.330Z,23.30
2022-08-22T21:10:22.257Z,23.30
2022-08-22T21:13:09.748Z,23.30
2022-08-22T21:15:39.923Z,23.30
2022-08-22T21:18:09.011Z,23.30
2022-08-22T21:20:40.065Z,23.20
2022-08-22T21:23:15.883Z,23.20
2022-08-22T21:26:07.163Z,23.20
2022-08-22T21:28:38.501Z,23.20
2022-08-22T21:31:13.876Z,23.10
2022-08-22T21:33:47.175Z,23.10
2022-08-22T21:36:17.803Z,23.10
2022-08-22T21:38:55.358Z,23.10
2022-08-22T21:41:29.577Z,23.10
2022-08-22T21:44:17.859Z,23.00
2022-08-22T21:46:46.448Z,23.00
2022-08-22T21:49:23.340Z,23.00
2022-08-22T21:51:52.349Z,22.90
2022-08-22T21:54:30.028Z,22.90
2022-08-22T21:57:00.315Z,22.90
2022-08-22T21:59:50.660Z,22.90
2022-08-22T22:02:35.272Z,22.90
2022-08-22T22:05:09.170Z,22.80
2022-08-22T22:07:39.451Z,22.80
2022-08-22T22:10:13.921Z,22.80
2022-08-22T22:12:44.258Z,22.80
2022-08-22T22:15:19.650Z,22.80
2022-08-22T22:17:47.956Z,22.70
2022-08-22T22:20:18.460Z,22.70
2022-08-22T22:22:50.570Z,22.70
2022-08-22T22:25:38.863Z,22.60
2022-08-22T22:28:11.904Z,22.60
2022-08-22T22:30:40.382Z,22.60
2022-08-22T22:33:08.670Z,22.60
2022-08-22T22:35:39.990Z,22.60
2022-08-22T22:38:08.824Z,22.60
2022-08-22T22:40:38.492Z,22.60
2022-08-22T22:43:06.852Z,22.70
2022-08-22T22:45:35.361Z,22.70
2022-08-22T22:48:04.042Z,22.70
2022-08-22T22:50:33.188Z,22.60
2022-08-22T22:53:01.480Z,22.60
2022-08-22T22:55:29.851Z,22.70
2022-08-22T22:58:01.735Z,22.60
2022-08-22T23:00:32.436Z,22.70
2022-08-22T23:03:01.990Z,22.60
2022-08-22T23:05:31.131Z,22.70
2022-08-22T23:08:00.468Z,22.70
2022-08-22T23:10:30.165Z,22.70
2022-08-22T23:12:58.853Z,22.70
2022-08-22T23:15:29.405Z,22.70
2022-08-22T23:17:57.730Z,22.70
2022-08-22T23:20:26.004Z,22.60
2022-08-22T23:22:54.338Z,22.60
2022-08-22T23:25:22.618Z,22.60
2022-08-22T23:27:52.503Z,22.60
2022-08-22T23:30:21.553Z,22.60
2022-08-22T23:32:51.264Z,22.60
2022-08-22T23:35:19.783Z,22.60
2022-08-22T23:37:48.114Z,22.60
2022-08-22T23:40:16.595Z,22.60
2022-08-22T23:42:44.968Z,22.60
2022-08-22T23:45:13.238Z,22.60
2022-08-22T23:47:41.555Z,22.60
2022-08-22T23:50:11.382Z,22.50
2022-08-22T23:52:39.752Z,22.50
2022-08-22T23:55:08.772Z,22.50
2022-08-22T23:57:37.149Z,22.50
